createdAt,value
2018-08-19T00:00:36.519Z,54.10
2018-08-19T00:03:04.930Z,53.72
2018-08-19T00:05:32.930Z,53.74
2018-08-19T00:08:00.549Z,53.83
2018-08-19T00:10:34.378Z,53.57
2018-08-19T00:13:03.282Z,54.23
2018-08-19T00:15:31.915Z,54.25
2018-08-19T00:17:59.554Z,54.44
2018-08-19T00:20:27.503Z,53.81
2018-08-19T00:22:55.118Z,54.16
2018-08-19T00:25:23.430Z,53.86
2018-08-19T00:27:52.368Z,53.93
2018-08-19T00:30:19.990Z,53.63
2018-08-19T00:32:47.576Z,54.62
2018-08-19T00:35:15.545Z,54.57
2018-08-19T00:37:43.278Z,54.55
2018-08-19T00:40:13.706Z,54.73
2018-08-19T00:42:42.834Z,54.70
2018-08-19T00:45:10.438Z,54.89
2018-08-19T00:47:38.084Z,54.73
2018-08-19T00:50:05.945Z,55.15
2018-08-19T00:52:33.539Z,54.83
2018-08-19T00:55:01.146Z,54.82
2018-08-19T00:57:29.178Z,54.61
2018-08-19T00:59:57.804Z,55.35
2018-08-19T01:02:25.423Z,54.72
2018-08-19T01:04:55.210Z,54.99
2018-08-19T01:07:22.810Z,54.98
2018-08-19T01:09:50.464Z,54.71
2018-08-19T01:12:18.673Z,55.36
2018-08-19T01:14:46.304Z,55.27
2018-08-19T01:17:13.910Z,55.22
2018-08-19T01:19:41.564Z,54.65
2018-08-19T01:22:11.156Z,54.93
2018-08-19T01:24:38.754Z,55.14
2018-08-19T01:27:06.400Z,54.54
2018-08-19T01:29:39.232Z,55.02
2018-08-19T01:32:11.456Z,55.22
2018-08-19T01:34:39.060Z,55.56
2018-08-19T01:37:06.964Z,55.56
2018-08-19T01:39:35.518Z,55.48
2018-08-19T01:42:03.153Z,55.55
2018-08-19T01:44:31.035Z,55.52
2018-08-19T01:46:58.654Z,55.83
2018-08-19T01:49:26.263Z,55.08
2018-08-19T01:51:53.891Z,55.45
2018-08-19T01:54:22.864Z,55.46
2018-08-19T01:56:50.454Z,55.49
2018-08-19T01:59:18.068Z,56.25
2018-08-19T02:01:45.669Z,55.93
2018-08-19T02:04:13.711Z,56.11
2018-08-19T02:06:42.069Z,56.24
2018-08-19T02:09:11.275Z,56.07
2018-08-19T02:11:38.876Z,56.29
2018-08-19T02:14:06.827Z,56.98
2018-08-19T02:16:34.454Z,57.16
2018-08-19T02:19:02.105Z,56.65
2018-08-19T02:21:30.188Z,57.24
2018-08-19T02:23:57.828Z,57.55
2018-08-19T02:26:29.482Z,57.47
2018-08-19T02:28:57.087Z,57.34
2018-08-19T02:31:25.135Z,56.92
2018-08-19T02:33:52.760Z,57.10
2018-08-19T02:36:20.378Z,57.65
2018-08-19T02:38:48.399Z,57.34
2018-08-19T02:41:15.999Z,57.71
2018-08-19T02:43:48.559Z,57.38
2018-08-19T02:46:16.675Z,57.71
2018-08-19T02:48:45.460Z,57.13
2018-08-19T02:51:15.139Z,57.65
2018-08-19T02:53:44.497Z,57.22
2018-08-19T02:56:12.774Z,57.74
2018-08-19T02:58:40.472Z,57.50
2018-08-19T03:01:08.133Z,58.11
2018-08-19T03:03:36.067Z,57.29
2018-08-19T03:06:04.252Z,57.42
2018-08-19T03:08:32.610Z,58.18
2018-08-19T03:11:00.319Z,57.91
2018-08-19T03:13:28.203Z,57.68
2018-08-19T03:15:57.555Z,57.77
2018-08-19T03:18:25.315Z,58.23
2018-08-19T03:20:53.284Z,57.96
2018-08-19T03:23:20.894Z,58.52
2018-08-19T03:25:48.591Z,57.98
2018-08-19T03:28:16.545Z,58.08
2018-08-19T03:30:54.901Z,58.34
2018-08-19T03:33:22.516Z,58.76
2018-08-19T03:35:50.431Z,58.33
2018-08-19T03:38:18.082Z,58.67
2018-08-19T03:40:45.739Z,58.79
2018-08-19T03:43:13.630Z,58.88
2018-08-19T03:45:41.284Z,58.69
2018-08-19T03:48:08.871Z,58.57
2018-08-19T03:50:36.819Z,59.38
2018-08-19T03:53:04.432Z,59.04
2018-08-19T03:55:32.837Z,59.40
2018-08-19T03:58:01.027Z,59.23
2018-08-19T04:00:31.607Z,59.10
2018-08-19T04:02:59.236Z,58.92
2018-08-19T04:05:30.880Z,58.88
2018-08-19T04:07:58.798Z,59.38
2018-08-19T04:10:26.677Z,59.42
2018-08-19T04:12:54.296Z,59.01
2018-08-19T04:15:21.899Z,59.29
2018-08-19T04:17:49.521Z,59.51
2018-08-19T04:20:17.158Z,59.09
2018-08-19T04:22:44.769Z,59.41
2018-08-19T04:25:12.691Z,59.57
2018-08-19T04:27:40.312Z,59.31
2018-08-19T04:30:07.931Z,59.38
2018-08-19T04:32:35.616Z,59.39
2018-08-19T04:35:03.715Z,59.59
2018-08-19T04:37:31.346Z,59.31
2018-08-19T04:40:00.385Z,59.20
2018-08-19T04:42:28.251Z,59.76
2018-08-19T04:44:57.315Z,58.91
2018-08-19T04:47:32.270Z,59.28
2018-08-19T04:49:59.905Z,59.01
2018-08-19T04:52:27.803Z,59.32
2018-08-19T04:54:56.508Z,59.36
2018-08-19T04:57:24.172Z,58.92
2018-08-19T04:59:51.803Z,59.00
2018-08-19T05:02:20.613Z,58.80
2018-08-19T05:04:48.184Z,58.46
2018-08-19T05:07:15.825Z,58.66
2018-08-19T05:09:43.735Z,58.82
2018-08-19T05:12:11.394Z,58.41
2018-08-19T05:14:38.987Z,58.08
2018-08-19T05:17:06.899Z,58.27
2018-08-19T05:19:34.519Z,58.26
2018-08-19T05:22:09.047Z,57.70
2018-08-19T05:24:36.683Z,58.26
2018-08-19T05:27:07.269Z,57.91
2018-08-19T05:29:34.900Z,57.92
2018-08-19T05:32:02.556Z,57.41
2018-08-19T05:34:31.999Z,56.75
2018-08-19T05:36:59.715Z,56.80
2018-08-19T05:39:27.331Z,56.78
2018-08-19T05:41:58.971Z,57.39
2018-08-19T05:44:29.533Z,56.90
2018-08-19T05:47:00.540Z,57.13
2018-08-19T05:49:28.194Z,56.67
2018-08-19T05:51:55.795Z,56.97
2018-08-19T05:54:24.664Z,56.71
2018-08-19T05:56:57.562Z,56.46
2018-08-19T05:59:26.205Z,56.20
2018-08-19T06:01:53.831Z,55.73
2018-08-19T06:04:21.885Z,55.49
2018-08-19T06:06:50.095Z,55.48
2018-08-19T06:09:17.733Z,55.20
2018-08-19T06:11:45.342Z,55.16
2018-08-19T06:14:16.385Z,54.94
2018-08-19T06:16:43.989Z,54.56
2018-08-19T06:19:11.610Z,54.60
2018-08-19T06:21:40.230Z,54.55
2018-08-19T06:24:07.876Z,54.64
2018-08-19T06:26:35.746Z,54.80
2018-08-19T06:29:03.353Z,54.81
2018-08-19T06:31:33.614Z,53.93
2018-08-19T06:34:01.253Z,54.49
2018-08-19T06:36:28.950Z,53.76
2018-08-19T06:38:57.543Z,54.49
2018-08-19T06:41:25.307Z,54.08
2018-08-19T06:43:52.918Z,53.51
2018-08-19T06:46:20.898Z,53.44
2018-08-19T06:48:48.532Z,53.90
2018-08-19T06:51:16.183Z,53.53
2018-08-19T06:53:44.100Z,53.25
2018-08-19T06:56:11.740Z,53.30
2018-08-19T06:58:39.397Z,53.17
2018-08-19T07:01:07.574Z,52.78
2018-08-19T07:03:35.606Z,52.56
2018-08-19T07:06:06.599Z,52.05
2018-08-19T07:08:35.166Z,52.09
2018-08-19T07:11:04.090Z,51.92
2018-08-19T07:13:31.756Z,51.92
2018-08-19T07:15:59.369Z,52.53
2018-08-19T07:18:27.355Z,51.81
2018-08-19T07:20:55.009Z,51.88
2018-08-19T07:23:23.603Z,51.83
2018-08-19T07:25:51.966Z,52.45
2018-08-19T07:28:25.543Z,52.29
2018-08-19T07:30:53.155Z,52.40
2018-08-19T07:33:21.596Z,51.68
2018-08-19T07:35:49.628Z,52.20
2018-08-19T07:38:17.328Z,51.65
2018-08-19T07:40:45.759Z,52.27
2018-08-19T07:43:13.976Z,52.18
2018-08-19T07:45:41.888Z,51.14
2018-08-19T07:48:09.496Z,51.83
2018-08-19T07:50:37.123Z,51.48
2018-08-19T07:53:05.084Z,51.29
2018-08-19T07:55:32.721Z,50.95
2018-08-19T07:58:00.366Z,51.35
2018-08-19T08:00:33.216Z,51.55
2018-08-19T08:03:00.864Z,51.41
2018-08-19T08:05:32.476Z,51.36
2018-08-19T08:08:00.371Z,51.33
2018-08-19T08:10:29.825Z,52.00
2018-08-19T08:13:01.451Z,51.70
2018-08-19T08:15:31.313Z,51.54
2018-08-19T08:17:58.974Z,50.86
2018-08-19T08:20:26.604Z,51.28
2018-08-19T08:22:54.510Z,50.45
2018-08-19T08:25:22.110Z,50.92
2018-08-19T08:27:50.226Z,50.95
2018-08-19T08:30:17.866Z,50.25
2018-08-19T08:32:48.988Z,50.73
2018-08-19T08:35:16.590Z,49.95
2018-08-19T08:37:44.286Z,49.82
2018-08-19T08:40:13.394Z,49.92
2018-08-19T08:42:42.425Z,49.89
2018-08-19T08:45:10.427Z,49.63
2018-08-19T08:47:38.276Z,50.11
2018-08-19T08:50:06.610Z,49.72
2018-08-19T08:52:35.431Z,49.49
2018-08-19T08:57:36.687Z,48.90
2018-08-19T09:00:04.324Z,49.39
2018-08-19T09:02:32.235Z,48.64
2018-08-19T09:04:59.851Z,48.67
2018-08-19T09:07:27.472Z,49.51
2018-08-19T09:09:55.467Z,49.03
2018-08-19T09:12:23.233Z,49.57
2018-08-19T09:14:53.721Z,49.26
2018-08-19T09:17:21.828Z,49.33
2018-08-19T09:19:49.468Z,49.71
2018-08-19T09:22:17.639Z,49.18
2018-08-19T09:24:45.807Z,49.24
2018-08-19T09:27:13.434Z,49.02
2018-08-19T09:29:44.518Z,48.13
2018-08-19T09:32:13.348Z,48.15
2018-08-19T09:34:42.413Z,48.10
2018-08-19T09:37:11.957Z,47.94
2018-08-19T09:39:39.867Z,47.33
2018-08-19T09:42:11.844Z,47.26
2018-08-19T09:44:40.987Z,46.18
2018-08-19T09:47:08.961Z,46.07
2018-08-19T09:49:36.715Z,45.04
2018-08-19T09:52:04.619Z,45.01
2018-08-19T09:54:37.400Z,43.57
2018-08-19T09:57:05.784Z,42.94
2018-08-19T09:59:37.570Z,43.17
2018-08-19T10:02:10.514Z,42.39
2018-08-19T10:04:38.356Z,41.79
2018-08-19T10:07:13.355Z,41.62
2018-08-19T10:09:42.435Z,40.74
2018-08-19T10:12:11.566Z,41.24
2018-08-19T10:14:40.563Z,40.16
2018-08-19T10:17:09.400Z,39.56
2018-08-19T10:19:38.354Z,39.87
2018-08-19T10:22:07.245Z,39.28
2018-08-19T10:24:35.511Z,38.92
2018-08-19T10:27:03.140Z,40.38
2018-08-19T10:29:31.305Z,40.93
2018-08-19T10:31:59.414Z,39.85
2018-08-19T10:34:27.215Z,38.96
2018-08-19T10:36:55.474Z,39.02
2018-08-19T10:39:23.076Z,38.02
2018-08-19T10:41:50.724Z,38.31
2018-08-19T10:44:18.884Z,38.22
2018-08-19T10:46:47.188Z,38.55
2018-08-19T10:49:15.698Z,37.91
2018-08-19T10:51:45.592Z,37.85
2018-08-19T10:54:13.807Z,37.09
2018-08-19T10:56:42.292Z,36.66
2018-08-19T10:59:10.271Z,36.12
2018-08-19T11:01:37.865Z,36.13
2018-08-19T11:04:05.584Z,35.23
2018-08-19T11:06:34.195Z,35.25
2018-08-19T11:09:02.451Z,33.87
2018-08-19T11:11:30.175Z,34.54
2018-08-19T11:13:58.226Z,34.14
2018-08-19T11:16:26.728Z,33.57
2018-08-19T11:18:54.518Z,34.10
2018-08-19T11:21:52.631Z,33.50
2018-08-19T11:24:24.328Z,32.66
2018-08-19T11:26:57.147Z,32.23
2018-08-19T11:29:24.763Z,33.34
2018-08-19T11:31:53.282Z,32.88
2018-08-19T11:34:21.299Z,33.20
2018-08-19T11:36:49.585Z,32.79
2018-08-19T11:39:17.819Z,32.37
2018-08-19T11:41:45.863Z,32.62
2018-08-19T11:44:15.700Z,32.11
2018-08-19T11:46:43.493Z,31.11
2018-08-19T11:49:16.889Z,31.86
2018-08-19T11:51:45.552Z,30.77
2018-08-19T11:54:14.851Z,31.77
2018-08-19T11:56:42.480Z,30.73
2018-08-19T11:59:11.506Z,30.57
2018-08-19T12:01:39.380Z,30.65
2018-08-19T12:04:07.675Z,30.87
2018-08-19T12:06:38.685Z,29.82
2018-08-19T12:09:07.477Z,30.59
2018-08-19T12:11:38.283Z,30.15
2018-08-19T12:14:05.995Z,29.61
2018-08-19T12:16:35.085Z,30.54
2018-08-19T12:19:07.658Z,30.38
2018-08-19T12:21:41.470Z,30.51
2018-08-19T12:24:15.470Z,30.30
2018-08-19T12:26:43.873Z,29.43
2018-08-19T12:29:12.189Z,28.84
2018-08-19T12:31:40.628Z,29.83
2018-08-19T12:34:08.270Z,29.75
2018-08-19T12:36:35.951Z,29.03
2018-08-19T12:39:04.316Z,28.91
2018-08-19T12:41:33.355Z,29.23
2018-08-19T12:44:01.262Z,29.95
2018-08-19T12:46:29.772Z,29.85
2018-08-19T12:48:58.943Z,30.06
2018-08-19T12:51:26.618Z,29.10
2018-08-19T13:09:50.731Z,28.60
2018-08-19T13:12:19.535Z,29.14
2018-08-19T13:14:47.198Z,28.33
2018-08-19T13:17:15.307Z,29.04
2018-08-19T13:19:43.816Z,28.16
2018-08-19T13:22:11.470Z,28.41
2018-08-19T13:24:40.694Z,27.75
2018-08-19T13:27:09.073Z,28.66
2018-08-19T13:29:37.475Z,27.64
2018-08-19T13:32:06.789Z,28.57
2018-08-19T13:34:34.435Z,28.29
2018-08-19T13:37:03.319Z,28.66
2018-08-19T13:39:31.275Z,28.44
2018-08-19T13:41:58.922Z,28.57
2018-08-19T13:44:26.625Z,28.00
2018-08-19T13:46:54.683Z,27.34
2018-08-19T13:49:26.350Z,28.13
2018-08-19T13:51:54.104Z,28.00
2018-08-19T13:54:22.985Z,27.52
2018-08-19T13:56:50.595Z,27.20
2018-08-19T13:59:18.447Z,27.53
2018-08-19T14:01:46.460Z,27.16
2018-08-19T14:04:15.131Z,27.20
2018-08-19T14:06:44.630Z,25.96
2018-08-19T14:09:13.566Z,26.16
2018-08-19T14:11:42.307Z,26.24
2018-08-19T14:14:10.587Z,27.84
2018-08-19T14:16:39.059Z,28.78
2018-08-19T14:19:07.811Z,29.37
2018-08-19T14:21:35.448Z,29.41
2018-08-19T14:24:05.632Z,30.76
2018-08-19T14:26:33.665Z,31.14
2018-08-19T14:29:01.418Z,30.55
2018-08-19T14:31:30.705Z,31.39
2018-08-19T14:36:49.316Z,31.41
2018-08-19T14:39:16.967Z,31.04
2018-08-19T14:41:44.595Z,31.00
2018-08-19T14:44:12.508Z,30.59
2018-08-19T14:46:40.185Z,29.88
2018-08-19T14:49:10.220Z,30.09
2018-08-19T14:51:38.379Z,30.92
2018-08-19T14:54:07.919Z,29.97
2018-08-19T14:56:35.530Z,29.91
2018-08-19T14:59:04.757Z,29.89
2018-08-19T15:01:32.403Z,29.08
2018-08-19T15:04:01.436Z,28.89
2018-08-19T15:06:29.475Z,28.17
2018-08-19T15:08:57.361Z,28.24
2018-08-19T15:11:26.298Z,26.70
2018-08-19T15:13:55.135Z,26.86
2018-08-19T15:16:25.062Z,26.67
2018-08-19T15:18:54.129Z,26.58
2018-08-19T15:21:23.506Z,25.98
2018-08-19T15:23:51.133Z,26.07
2018-08-19T15:26:19.854Z,26.32
2018-08-19T15:28:48.415Z,26.45
2018-08-19T15:31:22.461Z,26.87
2018-08-19T15:33:50.172Z,26.34
2018-08-19T15:36:19.287Z,26.97
2018-08-19T15:38:46.971Z,26.93
2018-08-19T15:41:14.607Z,26.39
2018-08-19T15:43:43.142Z,27.11
2018-08-19T15:46:10.785Z,26.11
2018-08-19T15:48:38.775Z,26.72
2018-08-19T15:51:10.932Z,25.48
2018-08-19T15:53:38.564Z,24.82
2018-08-19T15:56:06.234Z,25.83
2018-08-19T15:58:34.856Z,25.59
2018-08-19T16:01:02.491Z,24.53
2018-08-19T16:03:30.714Z,24.75
2018-08-19T16:05:58.905Z,24.79
2018-08-19T16:08:26.587Z,25.11
2018-08-19T16:10:54.266Z,25.08
2018-08-19T16:13:22.383Z,25.64
2018-08-19T16:15:51.734Z,25.87
2018-08-19T16:18:19.388Z,25.82
2018-08-19T16:20:51.044Z,26.28
2018-08-19T16:23:18.730Z,25.48
2018-08-19T16:25:46.699Z,26.93
2018-08-19T16:28:14.301Z,27.05
2018-08-19T16:30:41.901Z,29.50
2018-08-19T16:33:09.837Z,30.00
2018-08-19T16:35:40.923Z,31.12
2018-08-19T16:38:08.563Z,31.91
2018-08-19T16:40:37.403Z,33.22
2018-08-19T16:43:05.626Z,33.70
2018-08-19T16:45:33.226Z,34.34
2018-08-19T16:48:02.747Z,33.70
2018-08-19T16:50:32.258Z,34.72
2018-08-19T16:52:59.859Z,35.05
2018-08-19T16:55:27.967Z,34.82
2018-08-19T16:57:55.575Z,35.05
2018-08-19T17:00:24.355Z,35.46
2018-08-19T17:02:52.325Z,36.13
2018-08-19T17:05:21.220Z,35.52
2018-08-19T17:07:50.023Z,35.83
2018-08-19T17:10:19.050Z,36.39
2018-08-19T17:12:47.700Z,37.07
2018-08-19T17:15:18.850Z,36.72
2018-08-19T17:17:49.082Z,36.74
2018-08-19T17:20:17.502Z,36.22
2018-08-19T17:22:47.615Z,37.11
2018-08-19T17:25:15.541Z,36.44
2018-08-19T17:27:43.261Z,36.53
2018-08-19T17:30:15.229Z,37.66
2018-08-19T17:32:47.233Z,36.69
2018-08-19T17:35:18.615Z,37.75
2018-08-19T17:37:48.798Z,37.64
2018-08-19T17:40:17.361Z,37.64
2018-08-19T17:42:46.635Z,37.94
2018-08-19T17:45:14.331Z,37.89
2018-08-19T17:47:44.470Z,38.14
2018-08-19T17:50:16.704Z,38.23
2018-08-19T17:52:44.346Z,38.48
2018-08-19T17:55:15.559Z,38.27
2018-08-19T17:57:45.127Z,38.40
2018-08-19T18:00:13.620Z,38.75
2018-08-19T18:02:43.664Z,38.79
2018-08-19T18:05:11.351Z,38.36
2018-08-19T18:07:40.739Z,39.18
2018-08-19T18:10:09.281Z,38.59
2018-08-19T18:12:38.312Z,39.57
2018-08-19T18:15:05.986Z,39.12
2018-08-19T18:17:34.618Z,38.84
2018-08-19T18:20:02.939Z,39.14
2018-08-19T18:22:31.500Z,39.59
2018-08-19T18:25:06.569Z,39.79
2018-08-19T18:27:34.208Z,39.39
2018-08-19T18:30:05.451Z,39.80
2018-08-19T18:32:33.551Z,40.11
2018-08-19T18:35:01.996Z,40.15
2018-08-19T18:37:30.669Z,40.87
2018-08-19T18:39:58.596Z,41.06
2018-08-19T18:42:28.704Z,41.40
2018-08-19T18:44:58.476Z,40.68
2018-08-19T18:47:26.448Z,40.72
2018-08-19T18:49:55.032Z,41.45
2018-08-19T18:52:24.898Z,41.16
2018-08-19T18:54:54.707Z,40.92
2018-08-19T18:57:22.363Z,41.41
2018-08-19T18:59:50.038Z,41.50
2018-08-19T19:02:19.494Z,42.14
2018-08-19T19:04:47.403Z,42.22
2018-08-19T19:07:15.022Z,42.29
2018-08-19T19:09:50.264Z,42.78
2018-08-19T19:12:19.717Z,42.52
2018-08-19T19:14:48.422Z,42.89
2018-08-19T19:17:17.526Z,42.62
2018-08-19T19:19:51.553Z,42.84
2018-08-19T19:22:20.391Z,43.50
2018-08-19T19:27:15.019Z,43.36
2018-08-19T19:29:42.999Z,43.92
2018-08-19T19:32:10.642Z,43.18
2018-08-19T19:34:38.271Z,43.34
2018-08-19T19:37:06.318Z,43.65
2018-08-19T19:39:35.675Z,43.36
2018-08-19T19:42:09.938Z,43.69
2018-08-19T19:44:37.939Z,44.08
2018-08-19T19:47:05.546Z,44.14
2018-08-19T19:49:34.144Z,43.84
2018-08-19T19:52:03.382Z,43.63
2018-08-19T19:54:32.260Z,44.26
2018-08-19T19:57:01.354Z,43.89
2018-08-19T19:59:32.085Z,44.47
2018-08-19T20:02:01.369Z,44.05
2018-08-19T20:04:29.740Z,44.29
2018-08-19T20:06:59.099Z,45.23
2018-08-19T20:09:27.356Z,45.25
2018-08-19T20:11:56.511Z,45.06
2018-08-19T20:14:26.251Z,45.56
2018-08-19T20:16:54.534Z,45.48
2018-08-19T20:19:24.484Z,45.70
2018-08-19T20:21:53.298Z,45.93
2018-08-19T20:24:22.593Z,46.56
2018-08-19T20:26:50.536Z,46.59
2018-08-19T20:29:20.767Z,46.31
2018-08-19T20:31:52.381Z,47.09
2018-08-19T20:34:20.677Z,46.54
2018-08-19T20:36:50.842Z,46.17
2018-08-19T20:39:20.524Z,46.83
2018-08-19T20:41:55.490Z,46.33
2018-08-19T20:44:23.550Z,46.98
2018-08-19T20:46:56.823Z,46.69
2018-08-19T20:49:24.490Z,46.43
2018-08-19T20:51:53.109Z,46.57
2018-08-19T20:54:20.735Z,46.95
2018-08-19T20:56:48.379Z,46.62
2018-08-19T20:59:16.550Z,47.14
2018-08-19T21:01:46.361Z,46.86
2018-08-19T21:04:15.558Z,46.92
2018-08-19T21:06:44.392Z,47.00
2018-08-19T21:09:14.715Z,47.23
2018-08-19T21:11:43.474Z,47.68
2018-08-19T21:14:11.566Z,47.65
2018-08-19T21:16:42.766Z,48.37
2018-08-19T21:19:10.657Z,47.68
2018-08-19T21:21:38.567Z,48.34
2018-08-19T21:24:07.933Z,48.43
2018-08-19T21:26:35.531Z,48.38
2018-08-19T21:29:05.305Z,48.38
2018-08-19T21:31:35.631Z,48.58
2018-08-19T21:34:03.291Z,48.38
2018-08-19T21:36:32.250Z,48.79
2018-08-19T21:39:01.013Z,48.36
2018-08-19T21:41:29.375Z,48.85
2018-08-19T21:43:57.336Z,48.56
2018-08-19T21:46:24.962Z,49.25
2018-08-19T21:48:52.617Z,49.50
2018-08-19T21:51:21.194Z,49.63
2018-08-19T21:53:49.460Z,48.87
2018-08-19T21:56:19.310Z,49.66
2018-08-19T21:58:48.162Z,49.18
2018-08-19T22:01:21.434Z,48.96
2018-08-19T22:03:54.691Z,48.99
2018-08-19T22:06:24.250Z,49.56
2018-08-19T22:08:51.883Z,49.56
2018-08-19T22:11:20.035Z,49.32
2018-08-19T22:13:48.024Z,49.81
2018-08-19T22:16:15.722Z,50.12
2018-08-19T22:18:43.415Z,49.78
2018-08-19T22:21:12.232Z,50.31
2018-08-19T22:23:44.817Z,50.05
2018-08-19T22:26:14.189Z,50.32
2018-08-19T22:28:45.945Z,51.03
2018-08-19T22:31:13.638Z,51.03
2018-08-19T22:33:42.402Z,51.17
2018-08-19T22:36:11.070Z,51.62
2018-08-19T22:38:43.709Z,51.22
2018-08-19T22:41:11.376Z,52.68
2018-08-19T22:43:39.898Z,52.27
2018-08-19T22:46:08.494Z,53.17
2018-08-19T22:48:37.516Z,53.17
2018-08-19T22:51:05.769Z,53.48
2018-08-19T22:53:33.779Z,54.16
2018-08-19T22:56:02.010Z,54.01
2018-08-19T22:58:29.644Z,53.82
2018-08-19T23:00:58.486Z,53.54
2018-08-19T23:03:26.308Z,53.29
2018-08-19T23:05:55.946Z,53.86
2018-08-19T23:08:27.585Z,53.35
2018-08-19T23:10:57.653Z,53.94
2018-08-19T23:13:29.279Z,53.63
2018-08-19T23:15:57.429Z,53.32
2018-08-19T23:18:26.067Z,53.63
2018-08-19T23:20:53.654Z,54.05
2018-08-19T23:23:21.294Z,53.69
2018-08-19T23:25:48.948Z,53.62
2018-08-19T23:28:17.566Z,54.09
2018-08-19T23:30:45.947Z,53.85
2018-08-19T23:33:13.579Z,53.36
2018-08-19T23:35:41.576Z,54.27
2018-08-19T23:38:09.232Z,54.08
2018-08-19T23:40:36.909Z,53.81
2018-08-19T23:43:05.248Z,54.01
2018-08-19T23:45:33.229Z,54.35
2018-08-19T23:48:00.911Z,54.35
2018-08-19T23:50:28.525Z,53.94
2018-08-19T23:52:56.467Z,53.77
2018-08-19T23:57:54.603Z,54.59
